Etusivu
METAR-TAF:

METAR-TAF

Lentoasemat :

Agadir, Marokko

Leveyspiiri: 30-20N, Pituuspiiri: 009-24W, korkeus merenpinnasta: 74 m

Tämänhetkinen sää

Tämä raportti tehtiin 34 minuuttia sitten, kello 00.00 UTC
Tuuli 3 kn lännestä/lounaasta
Lämpötila 18°C
Kosteus 88%
Ilmanpaine 1013 hPa
Näkyvyys: 8000 m

METAR: GMAD 180000Z 24003KT 8000 NSC 18/16 Q1013 NOSIG

Aika: 01:34 (00:34 UTC)

Sääennuste

Tämä raportti tehtiin 1 tunti ja 34 minuuttia sitten, kello 23.00 UTC
Ennuste voimassa 18. päivästä klo 00 UTC - 19. päivään klo 06 UTC
Tuuli 6 kn etelästä
Näkyvyys: 8000 m
Hajanaisia pilviä 1600 ft:n korkeudessa
Ajoittain
18. päivästä klo 05 UTC - 18. päivään klo 08 UTC
Hajonneita pilviä 1300 ft:n korkeudessa
Tulossa
18. päivästä klo 10 UTC - 18. päivään klo 12 UTC
Tuuli 12 kn lännestä

TAF: GMAD 172300Z 1800/1906 18006KT 8000 SCT016 TEMPO 1805/1808 BKN013 BECMG 1810/1812 26012KT

Säähavainnot ja -ennusteet yli 4000 lentoasemalta (METAR- ja TAF-raportit).

Käytössä olevat sääasemat on merkitty karttaan keltaisilla ja punaisilla pisteillä.

Aseta hiiri pisteen päälle nähdäksesi sääaseman nimen.

Klikkaa sitten nähdäksesi säähavainnot ja -ennusteet.

Kartan vaihtaminen: klikkaa mustalla rastilla varustettuja vihreitä pisteitä, niin voit zoomata sisään; viivalla varustettua vihreää pistettä, niin voit zoomata ulos tai vihreitä nuolia, niin pääset viereisille kartoille.


METAR-TAF: